MMPB/PBC METAR and TAF weather

Enter ICAO airport designator
Station Type Date Time Source
MMPB METAR 2019/05/20 10:00 UTC NOAA

MMPB 201000Z RTD 34002KT 6SM SKC 11/09 A3028 RMK HZY RTS


Station Type Date Time Source
MMPB Decoded METAR 2019/05/20 10:00 UTC NOAA

Puebla, Pue., Mexico (MMPB) 19-03N 098-10W
May 20, 2019 - 06:00 AM EDT / 2019.05.20 1000 UTC
Wind: from the NNW (340 degrees) at 2 MPH (2 KT):0
Visibility: 6 mile(s):0
Sky conditions: clear
Temperature: 51 F (11 C)
Dew Point: 48 F (9 C)
Relative Humidity: 87%
Pressure (altimeter): 30.28 in. Hg (1025 hPa)
ob: MMPB 201000Z RTD 34002KT 6SM SKC 11/09 A3028 RMK HZY RTS
cycle: 10

Station Type Date Time Source
MMPB TAF 2019/05/20 06:59 UTC NOAA

TAF MMPB 200354Z 2006/2106 00000KT 6SM HZ SCT090
FM201800 08010KT 6SM HZ SCT030 SCT200
TEMPO 2102/2106 6SM TSRA BKN030CB

Example: see airport list